Highspeed 4 — SWJD — position and weather

sailwx.info

Track history (hours):
 
Tides and Currents Weather Stations Pressure Air Temp Water Temp Dewpoint Dewpoint Depression Visibility Wind Speed Wind Dir Waves Ship Positions

Highspeed 4

Last reported at 2018-Jun-20 15:00 UTC. Time now 2018-Jun-20 15:18 UTC.
Position N 37°07' E 025°05'.

Length 93 m; draft 3.9 m.

Type: High speed craft. MMSI: 239658000.

Date/timePositionNaut miles runAvg speedWind from/ knotsBaromVisibWave heightAir tempDewpointWater temp
2018-Jun-20 15:00N 37°07' E 025°05'711.5
2018-Jun-20 14:26N 37°09' E 025°13'819.2
2018-Jun-20 14:01N 37°06' E 025°22'7 1.4
2018-Jun-20 08:46N 36°59' E 025°21'727.6
2018-Jun-20 08:31N 37°06' E 025°22'612.2
2018-Jun-20 08:01N 37°10' E 025°15'7 9.9
2018-Jun-20 07:16N 37°05' E 025°08'727.8
2018-Jun-20 07:01N 37°10' E 025°02'1733.5
2018-Jun-20 06:31N 37°20' E 024°45'3832.4
2018-Jun-20 05:21N 37°36' E 024°02'1134.2
2018-Jun-20 05:00N 37°39' E 023°48'1632.1
2018-Jun-20 04:30N 37°52' E 023°37'4 8.8
2018-Jun-20 04:00N 37°57' E 023°38'0 0.0
2018-Jun-20 03:30N 37°57' E 023°38'0 0.0
2018-Jun-20 03:00N 37°57' E 023°38'0 0.0
2018-Jun-20 02:30N 37°57' E 023°38'0 0.0
2018-Jun-20 02:00N 37°57' E 023°38'0 0.0
2018-Jun-20 01:30N 37°57' E 023°38'0 0.0
2018-Jun-20 01:00N 37°57' E 023°38'0 0.0
2018-Jun-20 00:30N 37°57' E 023°38'0 0.0
2018-Jun-20 00:00N 37°57' E 023°38'0 0.0
2018-Jun-19 23:30N 37°57' E 023°38'0 0.0
2018-Jun-19 23:00N 37°57' E 023°38'0 0.0
2018-Jun-19 22:30N 37°57' E 023°38'0 0.0
2018-Jun-19 22:00N 37°57' E 023°38'0 0.0
2018-Jun-19 21:30N 37°57' E 023°38'0 0.0
2018-Jun-19 21:00N 37°57' E 023°38'0 0.0
2018-Jun-19 20:30N 37°57' E 023°38'0 0.0
2018-Jun-19 20:00N 37°57' E 023°38'0 0.0
2018-Jun-19 19:30N 37°57' E 023°38'0 0.0
2018-Jun-19 19:00N 37°57' E 023°38'0 0.0
2018-Jun-19 18:30N 37°57' E 023°38'0 0.0
2018-Jun-19 18:00N 37°57' E 023°38'4 8.3
2018-Jun-19 17:31N 37°53' E 023°38'6733.1
2018-Jun-19 15:29N 37°14' E 024°48'1635.1
2018-Jun-19 15:01N 37°06' E 025°06'2 3.2
2018-Jun-19 14:30N 37°06' E 025°08'1123.4
2018-Jun-19 14:00N 37°06' E 025°22'7 1.4
2018-Jun-19 08:44N 36°59' E 025°21'733.7
2018-Jun-19 08:31N 37°06' E 025°19'4 7.2
2018-Jun-19 08:01N 37°10' E 025°18'910.1
2018-Jun-19 07:06N 37°06' E 025°07'333.6
2018-Jun-19 07:00N 37°08' E 025°04'1734.8
2018-Jun-19 06:31N 37°19' E 024°47'4132.9
2018-Jun-19 05:15N 37°36' E 023°60'935.2
2018-Jun-19 05:01N 37°39' E 023°49'1632.5
2018-Jun-19 04:31N 37°52' E 023°37'5 9.7
2018-Jun-19 03:58N 37°57' E 023°38'0 0.0
2018-Jun-19 03:28N 37°57' E 023°38'0 0.0
2018-Jun-19 02:58N 37°57' E 023°38'0 0.0
2018-Jun-19 02:28N 37°57' E 023°38'0 0.0
2018-Jun-19 01:58N 37°57' E 023°38'0 0.0
2018-Jun-19 01:28N 37°57' E 023°38'0 0.0
2018-Jun-19 00:58N 37°57' E 023°38'0 0.0
2018-Jun-19 00:28N 37°57' E 023°38'0 0.0
2018-Jun-18 23:55N 37°57' E 023°38'0 0.0
2018-Jun-18 23:28N 37°57' E 023°38'0 0.0
2018-Jun-18 22:58N 37°57' E 023°38'0 0.0
2018-Jun-18 22:28N 37°57' E 023°38'0 0.0
2018-Jun-18 21:58N 37°57' E 023°38'0 0.0
2018-Jun-18 21:28N 37°57' E 023°38'0 0.0
2018-Jun-18 20:58N 37°57' E 023°38'0 0.0
2018-Jun-18 20:28N 37°57' E 023°38'0 0.0
2018-Jun-18 19:58N 37°57' E 023°38'0 0.0
2018-Jun-18 19:28N 37°57' E 023°38'0 0.0
2018-Jun-18 18:58N 37°57' E 023°38'0 0.0
2018-Jun-18 18:28N 37°57' E 023°38'0 0.0
2018-Jun-18 18:00N 37°57' E 023°38'3 5.6
2018-Jun-18 17:30N 37°54' E 023°38'1631.2
2018-Jun-18 17:01N 37°41' E 023°48'5135.5
2018-Jun-18 15:34N 37°18' E 024°46'236.4
2018-Jun-18 15:31N 37°17' E 024°48'1835.5
2018-Jun-18 15:01N 37°06' E 025°06'2 2.9
2018-Jun-18 14:27N 37°06' E 025°08'1225.9
2018-Jun-18 14:00N 37°06' E 025°22'612.7
2018-Jun-18 13:31N 37°00' E 025°20'1 0.2
2018-Jun-18 08:42N 36°59' E 025°21'734.1
2018-Jun-18 08:31N 37°06' E 025°19'5 9.4
2018-Jun-18 08:01N 37°10' E 025°17'910.9
2018-Jun-18 07:11N 37°05' E 025°08'528.5
2018-Jun-18 07:01N 37°09' E 025°04'1733.7
2018-Jun-18 06:31N 37°19' E 024°47'4133.4
2018-Jun-18 05:17N 37°36' E 024°00'1034.7
2018-Jun-18 04:59N 37°39' E 023°48'1632.6
2018-Jun-18 04:31N 37°52' E 023°37'5 9.2
2018-Jun-18 03:59N 37°57' E 023°38'0 0.0
2018-Jun-18 03:26N 37°57' E 023°38'0 0.0
2018-Jun-18 02:59N 37°57' E 023°38'0 0.0
2018-Jun-18 02:29N 37°57' E 023°38'0 0.0
2018-Jun-18 01:59N 37°57' E 023°38'0 0.0
2018-Jun-18 01:29N 37°57' E 023°38'0 0.0
2018-Jun-18 00:59N 37°57' E 023°38'0 0.0
2018-Jun-18 00:29N 37°57' E 023°38'0 0.0
2018-Jun-17 23:59N 37°57' E 023°38'0 0.0
2018-Jun-17 23:29N 37°57' E 023°38'0 0.0
2018-Jun-17 22:59N 37°57' E 023°38'0 0.0
2018-Jun-17 22:29N 37°57' E 023°38'0 0.0
2018-Jun-17 21:59N 37°57' E 023°38'0 0.0
2018-Jun-17 21:29N 37°57' E 023°38'0 0.0
2018-Jun-17 20:59N 37°57' E 023°38'0 0.0
2018-Jun-17 20:29N 37°57' E 023°38'0 0.0
2018-Jun-17 19:59N 37°57' E 023°38'0 0.0
2018-Jun-17 19:29N 37°57' E 023°38'0 0.0
2018-Jun-17 18:59N 37°57' E 023°38'0 0.0
2018-Jun-17 18:29N 37°57' E 023°38'0 0.0
2018-Jun-17 18:00N 37°57' E 023°38'4 7.5
2018-Jun-17 17:31N 37°53' E 023°38'1632.5
2018-Jun-17 17:00N 37°40' E 023°50'5034.5
2018-Jun-17 15:34N 37°17' E 024°46'235.2
2018-Jun-17 15:31N 37°16' E 024°48'1734.7
2018-Jun-17 15:01N 37°06' E 025°06'2 3.0
2018-Jun-17 14:28N 37°07' E 025°08'1124.9
2018-Jun-17 14:01N 37°06' E 025°22'613.0
2018-Jun-17 13:31N 37°00' E 025°19'1 0.3
2018-Jun-17 08:38N 36°59' E 025°21'435.8
2018-Jun-17 08:30N 37°03' E 025°19'613.0
2018-Jun-17 08:00N 37°10' E 025°18'1010.9
2018-Jun-17 07:08N 37°06' E 025°07'433.9
2018-Jun-17 07:01N 37°09' E 025°03'1734.3
2018-Jun-17 06:31N 37°19' E 024°46'4033.0
2018-Jun-17 05:18N 37°36' E 024°00'1032.9
2018-Jun-17 05:00N 37°39' E 023°49'1632.2
2018-Jun-17 04:31N 37°52' E 023°37'5 9.1
2018-Jun-17 03:58N 37°57' E 023°38'0 0.0
2018-Jun-17 03:28N 37°57' E 023°38'0 0.0
2018-Jun-17 02:58N 37°57' E 023°38'0 0.0
2018-Jun-17 02:28N 37°57' E 023°38'0 0.0
2018-Jun-17 01:58N 37°57' E 023°38'0 0.0
2018-Jun-17 01:28N 37°57' E 023°38'0 0.0
2018-Jun-17 00:58N 37°57' E 023°38'0 0.0
2018-Jun-17 00:28N 37°57' E 023°38'0 0.0
2018-Jun-16 23:58N 37°57' E 023°38'0 0.0
2018-Jun-16 23:28N 37°57' E 023°38'0 0.0
2018-Jun-16 22:58N 37°57' E 023°38'0 0.0
2018-Jun-16 22:28N 37°57' E 023°38'0 0.0
2018-Jun-16 21:58N 37°57' E 023°38'0 0.0
2018-Jun-16 21:28N 37°57' E 023°38'0 0.0
2018-Jun-16 20:58N 37°57' E 023°38'0 0.0
2018-Jun-16 20:28N 37°57' E 023°38'0 0.0
2018-Jun-16 19:58N 37°57' E 023°38'0 0.0
2018-Jun-16 19:28N 37°57' E 023°38'0 0.0
2018-Jun-16 18:58N 37°57' E 023°38'0 0.0
2018-Jun-16 18:28N 37°57' E 023°38'0 0.0
2018-Jun-16 18:00N 37°57' E 023°38'3 6.9
2018-Jun-16 17:31N 37°53' E 023°39'1733.1
2018-Jun-16 17:01N 37°40' E 023°50'5135.2
2018-Jun-16 15:33N 37°15' E 024°47'135.0
2018-Jun-16 15:30N 37°14' E 024°49'1717.3
2018-Jun-16 14:30N 37°06' E 025°08'1223.1
2018-Jun-16 14:01N 37°06' E 025°22'612.7
2018-Jun-16 13:31N 37°00' E 025°20'2 0.3
2018-Jun-16 08:47N 36°59' E 025°21'726.8
2018-Jun-16 08:31N 37°06' E 025°22'5 9.1
2018-Jun-16 08:00N 37°10' E 025°18'910.4
2018-Jun-16 07:08N 37°06' E 025°07'431.8
2018-Jun-16 07:01N 37°09' E 025°04'1733.9
2018-Jun-16 06:31N 37°19' E 024°47'4533.7
2018-Jun-16 05:10N 37°38' E 023°55'634.3
2018-Jun-16 05:00N 37°39' E 023°48'1631.5
2018-Jun-16 04:31N 37°52' E 023°37'5 9.0
2018-Jun-16 04:00N 37°57' E 023°38'0 0.0
2018-Jun-16 03:30N 37°57' E 023°38'0 0.0
2018-Jun-16 03:00N 37°57' E 023°38'0 0.0
2018-Jun-16 02:30N 37°57' E 023°38'0 0.0
2018-Jun-16 02:00N 37°57' E 023°38'0 0.0
2018-Jun-16 01:30N 37°57' E 023°38'0 0.0
2018-Jun-16 01:00N 37°57' E 023°38'0 0.0
2018-Jun-16 00:30N 37°57' E 023°38'0 0.0
2018-Jun-16 00:00N 37°57' E 023°38'0 0.0
2018-Jun-15 23:30N 37°57' E 023°38'0 0.0
2018-Jun-15 23:00N 37°57' E 023°38'0 0.0
2018-Jun-15 22:30N 37°57' E 023°38'0 0.0
2018-Jun-15 22:00N 37°57' E 023°38'0 0.0
2018-Jun-15 21:30N 37°57' E 023°38'0 0.0
2018-Jun-15 21:00N 37°57' E 023°38'0 0.0
2018-Jun-15 20:30N 37°57' E 023°38'0 0.0
2018-Jun-15 20:00N 37°57' E 023°38'0 0.0
2018-Jun-15 19:30N 37°57' E 023°38'0 0.0
2018-Jun-15 19:00N 37°57' E 023°38'0 0.0
2018-Jun-15 18:30N 37°57' E 023°38'0 0.4
2018-Jun-15 18:00N 37°57' E 023°38'919.0
2018-Jun-15 17:31N 37°47' E 023°41'2129.6
2018-Jun-15 16:48N 37°37' E 024°05'4431.7
2018-Jun-15 15:25N 37°12' E 024°50'1435.1
2018-Jun-15 15:01N 37°05' E 025°05'2 4.2
2018-Jun-15 14:27N 37°06' E 025°08'1125.9
2018-Jun-15 14:01N 37°06' E 025°22'612.8
2018-Jun-15 13:31N 37°00' E 025°20'1 0.2
2018-Jun-15 08:49N 36°59' E 025°21'722.9
2018-Jun-15 08:31N 37°06' E 025°22'510.4
2018-Jun-15 08:01N 37°10' E 025°18'912.0
2018-Jun-15 07:15N 37°05' E 025°08'727.2
2018-Jun-15 07:01N 37°10' E 025°03'6033.2
2018-Jun-15 05:13N 37°37' E 023°56'733.5
2018-Jun-15 05:00N 37°39' E 023°47'1530.8
2018-Jun-15 04:31N 37°52' E 023°37'5 8.6
2018-Jun-15 03:58N 37°57' E 023°38'0 0.0
2018-Jun-15 03:28N 37°57' E 023°38'0 0.0
2018-Jun-15 02:58N 37°57' E 023°38'0 0.0
2018-Jun-15 02:28N 37°57' E 023°38'0 0.0
2018-Jun-15 01:58N 37°57' E 023°38'0 0.0
2018-Jun-15 01:28N 37°57' E 023°38'0 0.0
2018-Jun-15 00:58N 37°57' E 023°38'0 0.0
2018-Jun-15 00:28N 37°57' E 023°38'0 0.0
2018-Jun-14 23:58N 37°57' E 023°38'0 0.0
2018-Jun-14 23:28N 37°57' E 023°38'0 0.0
2018-Jun-14 22:58N 37°57' E 023°38'0 0.0
2018-Jun-14 22:28N 37°57' E 023°38'0 0.0
2018-Jun-14 21:58N 37°57' E 023°38'0 0.0
2018-Jun-14 21:28N 37°57' E 023°38'0 0.0
2018-Jun-14 20:58N 37°57' E 023°38'0 0.0
2018-Jun-14 20:28N 37°57' E 023°38'0 0.0
2018-Jun-14 19:58N 37°57' E 023°38'0 0.0
2018-Jun-14 19:28N 37°57' E 023°38'0 0.0
2018-Jun-14 18:58N 37°57' E 023°38'0 0.0
2018-Jun-14 18:28N 37°57' E 023°38'0 0.0
2018-Jun-14 18:00N 37°57' E 023°38'3 6.4
2018-Jun-14 17:31N 37°54' E 023°38'1632.5
2018-Jun-14 17:01N 37°40' E 023°50'5034.3
2018-Jun-14 15:33N 37°18' E 024°46'235.7
2018-Jun-14 15:31N 37°17' E 024°48'1835.8
2018-Jun-14 15:00N 37°07' E 025°06'2 3.2
2018-Jun-14 14:30N 37°07' E 025°08'1122.9
2018-Jun-14 14:00N 37°06' E 025°22'611.5
2018-Jun-14 13:31N 37°01' E 025°20'2 0.4
2018-Jun-14 08:41N 36°59' E 025°21'633.0
2018-Jun-14 08:31N 37°05' E 025°19'510.1
2018-Jun-14 08:01N 37°10' E 025°18'910.8
2018-Jun-14 07:10N 37°07' E 025°07'533.2
2018-Jun-14 07:01N 37°10' E 025°02'1733.3
2018-Jun-14 06:31N 37°20' E 024°45'5533.1
2018-Jun-14 04:51N 37°41' E 023°42'1233.8
2018-Jun-14 04:31N 37°52' E 023°37'5 0.3
2018-Jun-13 14:39N 37°57' E 023°38'0 0.0
2018-Jun-13 14:30N 37°57' E 023°38'0 0.0
2018-Jun-13 14:00N 37°57' E 023°38'0 0.0
2018-Jun-13 13:30N 37°57' E 023°38'0 0.0
2018-Jun-13 13:00N 37°57' E 023°38'0 0.0
2018-Jun-13 12:30N 37°57' E 023°38'0 0.0
2018-Jun-13 12:00N 37°57' E 023°38'0 0.0
2018-Jun-13 11:30N 37°57' E 023°38'0 0.0
2018-Jun-13 11:00N 37°57' E 023°38'0 0.0
2018-Jun-13 10:30N 37°57' E 023°38'0 0.0
2018-Jun-13 10:00N 37°57' E 023°38'0 0.0
2018-Jun-13 09:30N 37°57' E 023°38'0 0.0
2018-Jun-13 09:00N 37°57' E 023°38'0 0.0
2018-Jun-13 08:30N 37°57' E 023°38'0 0.0
2018-Jun-13 08:00N 37°57' E 023°38'0 0.0
2018-Jun-13 07:30N 37°57' E 023°38'0 0.0
2018-Jun-13 07:00N 37°57' E 023°38'0 0.0
2018-Jun-13 06:30N 37°57' E 023°38'0 0.0
2018-Jun-13 06:00N 37°57' E 023°38'0 0.0
2018-Jun-13 05:30N 37°57' E 023°38'0 0.0
2018-Jun-13 05:00N 37°57' E 023°38'0 0.0
2018-Jun-13 04:30N 37°57' E 023°38'0 0.0
2018-Jun-13 04:00N 37°57' E 023°38'0 0.0
2018-Jun-13 03:30N 37°57' E 023°38'0 0.0
2018-Jun-13 03:00N 37°57' E 023°38'0 0.0
2018-Jun-13 02:30N 37°57' E 023°38'0 0.0
2018-Jun-13 02:00N 37°57' E 023°38'0 0.0
2018-Jun-13 01:30N 37°57' E 023°38'0 0.0
2018-Jun-13 01:00N 37°57' E 023°38'0 0.0
2018-Jun-13 00:30N 37°57' E 023°38'0 0.0
2018-Jun-13 00:00N 37°57' E 023°38'0 0.0
2018-Jun-12 23:30N 37°57' E 023°38'0 0.0
2018-Jun-12 23:00N 37°57' E 023°38'0 0.0
2018-Jun-12 22:30N 37°57' E 023°38'0 0.0
2018-Jun-12 22:00N 37°57' E 023°38'0 0.0
2018-Jun-12 21:30N 37°57' E 023°38'0 0.0
2018-Jun-12 21:00N 37°57' E 023°38'0 0.0
2018-Jun-12 20:30N 37°57' E 023°38'0 0.0
2018-Jun-12 20:00N 37°57' E 023°38'0 0.0
2018-Jun-12 19:30N 37°57' E 023°38'0 0.0
2018-Jun-12 19:00N 37°57' E 023°38'0 0.0
2018-Jun-12 18:30N 37°57' E 023°38'0 0.0
2018-Jun-12 18:00N 37°57' E 023°38'0 0.0
2018-Jun-12 17:30N 37°57' E 023°38'0 0.0
2018-Jun-12 17:00N 37°57' E 023°38'0 0.0
2018-Jun-12 16:30N 37°57' E 023°38'0 0.0
2018-Jun-12 16:00N 37°57' E 023°38'0 0.0
2018-Jun-12 15:27N 37°57' E 023°38'0 0.0
2018-Jun-12 15:00N 37°57' E 023°38'0 0.0
2018-Jun-12 14:27N 37°57' E 023°38'0 0.0
2018-Jun-12 14:00N 37°57' E 023°38'0 0.0
2018-Jun-12 13:30N 37°57' E 023°38'0 0.0
2018-Jun-12 13:00N 37°57' E 023°38'0 0.0
2018-Jun-12 12:30N 37°57' E 023°38'0 0.0
2018-Jun-12 12:00N 37°57' E 023°38'0 0.0
2018-Jun-12 11:30N 37°57' E 023°38'0 0.0
2018-Jun-12 11:00N 37°57' E 023°38'0 0.0
2018-Jun-12 10:30N 37°57' E 023°38'0 0.0
2018-Jun-12 10:00N 37°57' E 023°38'0 0.0
2018-Jun-12 09:30N 37°57' E 023°38'0 0.0
2018-Jun-12 09:00N 37°57' E 023°38'0 0.0
2018-Jun-12 08:30N 37°57' E 023°38'0 0.0
2018-Jun-12 07:59N 37°57' E 023°38'0 0.0
2018-Jun-12 07:30N 37°57' E 023°38'0 0.0
2018-Jun-12 07:00N 37°57' E 023°38'0 0.0
2018-Jun-12 06:30N 37°57' E 023°38'0 0.0
2018-Jun-12 06:00N 37°57' E 023°38'0 0.0
2018-Jun-12 05:30N 37°57' E 023°38'0 0.0
2018-Jun-12 05:00N 37°57' E 023°38'0 0.0
2018-Jun-12 04:30N 37°57' E 023°38'0 0.0
2018-Jun-12 04:00N 37°57' E 023°38'0 0.0
2018-Jun-12 03:30N 37°57' E 023°38'0 0.0
2018-Jun-12 03:00N 37°57' E 023°38'0 0.0
2018-Jun-12 02:30N 37°57' E 023°38'0 0.0
2018-Jun-12 02:00N 37°57' E 023°38'0 0.0
2018-Jun-12 01:30N 37°57' E 023°38'0 0.0
2018-Jun-12 01:00N 37°57' E 023°38'0 0.0
2018-Jun-12 00:30N 37°57' E 023°38'0 0.0
2018-Jun-12 00:00N 37°57' E 023°38'0 0.0
2018-Jun-11 23:30N 37°57' E 023°38'0 0.0
2018-Jun-11 23:00N 37°57' E 023°38'0 0.0
2018-Jun-11 22:30N 37°57' E 023°38'0 0.0
2018-Jun-11 22:00N 37°57' E 023°38'0 0.0
2018-Jun-11 21:30N 37°57' E 023°38'0 0.0
2018-Jun-11 21:00N 37°57' E 023°38'0 0.0
2018-Jun-11 20:30N 37°57' E 023°38'0 0.0
2018-Jun-11 20:00N 37°57' E 023°38'0 0.0
2018-Jun-11 19:30N 37°57' E 023°38'0 0.0
2018-Jun-11 19:00N 37°57' E 023°38'0 0.0
2018-Jun-11 18:30N 37°57' E 023°38'0 0.0
2018-Jun-11 18:00N 37°57' E 023°38'4 8.9
2018-Jun-11 17:31N 37°52' E 023°39'1733.8
2018-Jun-11 17:00N 37°39' E 023°52'5133.6
2018-Jun-11 15:30N 37°14' E 024°48'1734.8
2018-Jun-11 15:00N 37°06' E 025°07'611.0
2018-Jun-11 14:27N 37°09' E 025°13'818.1
2018-Jun-11 14:00N 37°06' E 025°22'7 1.4
2018-Jun-11 08:49N 36°59' E 025°21'723.4
2018-Jun-11 08:31N 37°06' E 025°22'612.4
2018-Jun-11 08:01N 37°10' E 025°16'8 9.2
2018-Jun-11 07:09N 37°06' E 025°07'533.7
2018-Jun-11 07:01N 37°09' E 025°03'1733.6
2018-Jun-11 06:31N 37°20' E 024°46'4632.8
2018-Jun-11 05:06N 37°38' E 023°53'335.5
2018-Jun-11 05:00N 37°39' E 023°49'1632.4
2018-Jun-11 04:31N 37°52' E 023°37'5 9.7
2018-Jun-11 04:00N 37°57' E 023°38'0 0.0
2018-Jun-11 03:30N 37°57' E 023°38'0 0.0
2018-Jun-11 03:00N 37°57' E 023°38'0 0.0
2018-Jun-11 02:30N 37°57' E 023°38'0 0.0
2018-Jun-11 02:00N 37°57' E 023°38'0 0.0
2018-Jun-11 01:30N 37°57' E 023°38'0 0.0
2018-Jun-11 01:00N 37°57' E 023°38'0 0.0
2018-Jun-11 00:30N 37°57' E 023°38'0 0.0
2018-Jun-11 00:00N 37°57' E 023°38'0 0.0
2018-Jun-10 23:30N 37°57' E 023°38'0 0.0
2018-Jun-10 23:00N 37°57' E 023°38'0 0.0
2018-Jun-10 22:30N 37°57' E 023°38'0 0.0
2018-Jun-10 22:00N 37°57' E 023°38'0 0.0
2018-Jun-10 21:30N 37°57' E 023°38'0 0.0
2018-Jun-10 21:00N 37°57' E 023°38'0 0.0
2018-Jun-10 20:30N 37°57' E 023°38'0 0.0
2018-Jun-10 20:00N 37°57' E 023°38'0 0.0
2018-Jun-10 19:30N 37°57' E 023°38'0 0.0
2018-Jun-10 19:00N 37°57' E 023°38'0 0.0
2018-Jun-10 18:30N 37°57' E 023°38'0 0.0
2018-Jun-10 18:01N 37°57' E 023°38'3 5.4
2018-Jun-10 17:31N 37°54' E 023°38'1530.3
2018-Jun-10 17:01N 37°41' E 023°47'5235.7
2018-Jun-10 15:33N 37°18' E 024°46'236.7
2018-Jun-10 15:31N 37°17' E 024°48'  
Track history (hours):
 
Tides and Currents Weather Stations Pressure Air Temp Water Temp Dewpoint Dewpoint Depression Visibility Wind Speed Wind Dir Waves Ship Positions

Highspeed 4

Last reported at 2018-Jun-20 15:00 UTC. Time now 2018-Jun-20 15:18 UTC.
Position N 37°07' E 025°05'.

Length 93 m; draft 3.9 m.

Type: High speed craft. MMSI: 239658000.

Date/timePositionNaut miles runAvg speedWind from/ knotsBaromVisibWave heightAir tempDewpointWater temp
2018-Jun-20 15:00N 37°07' E 025°05'711.5
2018-Jun-20 14:26N 37°09' E 025°13'819.2
2018-Jun-20 14:01N 37°06' E 025°22'7 1.4
2018-Jun-20 08:46N 36°59' E 025°21'727.6
2018-Jun-20 08:31N 37°06' E 025°22'612.2
2018-Jun-20 08:01N 37°10' E 025°15'7 9.9
2018-Jun-20 07:16N 37°05' E 025°08'727.8
2018-Jun-20 07:01N 37°10' E 025°02'1733.5
2018-Jun-20 06:31N 37°20' E 024°45'3832.4
2018-Jun-20 05:21N 37°36' E 024°02'1134.2
2018-Jun-20 05:00N 37°39' E 023°48'1632.1
2018-Jun-20 04:30N 37°52' E 023°37'4 8.8
2018-Jun-20 04:00N 37°57' E 023°38'0 0.0
2018-Jun-20 03:30N 37°57' E 023°38'0 0.0
2018-Jun-20 03:00N 37°57' E 023°38'0 0.0
2018-Jun-20 02:30N 37°57' E 023°38'0 0.0
2018-Jun-20 02:00N 37°57' E 023°38'0 0.0
2018-Jun-20 01:30N 37°57' E 023°38'0 0.0
2018-Jun-20 01:00N 37°57' E 023°38'0 0.0
2018-Jun-20 00:30N 37°57' E 023°38'0 0.0
2018-Jun-20 00:00N 37°57' E 023°38'0 0.0
2018-Jun-19 23:30N 37°57' E 023°38'0 0.0
2018-Jun-19 23:00N 37°57' E 023°38'0 0.0
2018-Jun-19 22:30N 37°57' E 023°38'0 0.0
2018-Jun-19 22:00N 37°57' E 023°38'0 0.0
2018-Jun-19 21:30N 37°57' E 023°38'0 0.0
2018-Jun-19 21:00N 37°57' E 023°38'0 0.0
2018-Jun-19 20:30N 37°57' E 023°38'0 0.0
2018-Jun-19 20:00N 37°57' E 023°38'0 0.0
2018-Jun-19 19:30N 37°57' E 023°38'0 0.0
2018-Jun-19 19:00N 37°57' E 023°38'0 0.0
2018-Jun-19 18:30N 37°57' E 023°38'0 0.0
2018-Jun-19 18:00N 37°57' E 023°38'4 8.3
2018-Jun-19 17:31N 37°53' E 023°38'6733.1
2018-Jun-19 15:29N 37°14' E 024°48'1635.1
2018-Jun-19 15:01N 37°06' E 025°06'2 3.2
2018-Jun-19 14:30N 37°06' E 025°08'1123.4
2018-Jun-19 14:00N 37°06' E 025°22'7 1.4
2018-Jun-19 08:44N 36°59' E 025°21'733.7
2018-Jun-19 08:31N 37°06' E 025°19'4 7.2
2018-Jun-19 08:01N 37°10' E 025°18'910.1
2018-Jun-19 07:06N 37°06' E 025°07'333.6
2018-Jun-19 07:00N 37°08' E 025°04'1734.8
2018-Jun-19 06:31N 37°19' E 024°47'4132.9
2018-Jun-19 05:15N 37°36' E 023°60'935.2
2018-Jun-19 05:01N 37°39' E 023°49'1632.5
2018-Jun-19 04:31N 37°52' E 023°37'5 9.7
2018-Jun-19 03:58N 37°57' E 023°38'0 0.0
2018-Jun-19 03:28N 37°57' E 023°38'0 0.0
2018-Jun-19 02:58N 37°57' E 023°38'0 0.0
2018-Jun-19 02:28N 37°57' E 023°38'0 0.0
2018-Jun-19 01:58N 37°57' E 023°38'0 0.0
2018-Jun-19 01:28N 37°57' E 023°38'0 0.0
2018-Jun-19 00:58N 37°57' E 023°38'0 0.0
2018-Jun-19 00:28N 37°57' E 023°38'0 0.0
2018-Jun-18 23:55N 37°57' E 023°38'0 0.0
2018-Jun-18 23:28N 37°57' E 023°38'0 0.0
2018-Jun-18 22:58N 37°57' E 023°38'0 0.0
2018-Jun-18 22:28N 37°57' E 023°38'0 0.0
2018-Jun-18 21:58N 37°57' E 023°38'0 0.0
2018-Jun-18 21:28N 37°57' E 023°38'0 0.0
2018-Jun-18 20:58N 37°57' E 023°38'0 0.0
2018-Jun-18 20:28N 37°57' E 023°38'0 0.0
2018-Jun-18 19:58N 37°57' E 023°38'0 0.0
2018-Jun-18 19:28N 37°57' E 023°38'0 0.0
2018-Jun-18 18:58N 37°57' E 023°38'0 0.0
2018-Jun-18 18:28N 37°57' E 023°38'0 0.0
2018-Jun-18 18:00N 37°57' E 023°38'3 5.6
2018-Jun-18 17:30N 37°54' E 023°38'1631.2
2018-Jun-18 17:01N 37°41' E 023°48'5135.5
2018-Jun-18 15:34N 37°18' E 024°46'236.4
2018-Jun-18 15:31N 37°17' E 024°48'1835.5
2018-Jun-18 15:01N 37°06' E 025°06'2 2.9
2018-Jun-18 14:27N 37°06' E 025°08'1225.9
2018-Jun-18 14:00N 37°06' E 025°22'612.7
2018-Jun-18 13:31N 37°00' E 025°20'1 0.2
2018-Jun-18 08:42N 36°59' E 025°21'734.1
2018-Jun-18 08:31N 37°06' E 025°19'5 9.4
2018-Jun-18 08:01N 37°10' E 025°17'910.9
2018-Jun-18 07:11N 37°05' E 025°08'528.5
2018-Jun-18 07:01N 37°09' E 025°04'1733.7
2018-Jun-18 06:31N 37°19' E 024°47'4133.4
2018-Jun-18 05:17N 37°36' E 024°00'1034.7
2018-Jun-18 04:59N 37°39' E 023°48'1632.6
2018-Jun-18 04:31N 37°52' E 023°37'5 9.2
2018-Jun-18 03:59N 37°57' E 023°38'0 0.0
2018-Jun-18 03:26N 37°57' E 023°38'0 0.0
2018-Jun-18 02:59N 37°57' E 023°38'0 0.0
2018-Jun-18 02:29N 37°57' E 023°38'0 0.0
2018-Jun-18 01:59N 37°57' E 023°38'0 0.0
2018-Jun-18 01:29N 37°57' E 023°38'0 0.0
2018-Jun-18 00:59N 37°57' E 023°38'0 0.0
2018-Jun-18 00:29N 37°57' E 023°38'0 0.0
2018-Jun-17 23:59N 37°57' E 023°38'0 0.0
2018-Jun-17 23:29N 37°57' E 023°38'0 0.0
2018-Jun-17 22:59N 37°57' E 023°38'0 0.0
2018-Jun-17 22:29N 37°57' E 023°38'0 0.0
2018-Jun-17 21:59N 37°57' E 023°38'0 0.0
2018-Jun-17 21:29N 37°57' E 023°38'0 0.0
2018-Jun-17 20:59N 37°57' E 023°38'0 0.0
2018-Jun-17 20:29N 37°57' E 023°38'0 0.0
2018-Jun-17 19:59N 37°57' E 023°38'0 0.0
2018-Jun-17 19:29N 37°57' E 023°38'0 0.0
2018-Jun-17 18:59N 37°57' E 023°38'0 0.0
2018-Jun-17 18:29N 37°57' E 023°38'0 0.0
2018-Jun-17 18:00N 37°57' E 023°38'4 7.5
2018-Jun-17 17:31N 37°53' E 023°38'1632.5
2018-Jun-17 17:00N 37°40' E 023°50'5034.5
2018-Jun-17 15:34N 37°17' E 024°46'235.2
2018-Jun-17 15:31N 37°16' E 024°48'1734.7
2018-Jun-17 15:01N 37°06' E 025°06'2 3.0
2018-Jun-17 14:28N 37°07' E 025°08'1124.9
2018-Jun-17 14:01N 37°06' E 025°22'613.0
2018-Jun-17 13:31N 37°00' E 025°19'1 0.3
2018-Jun-17 08:38N 36°59' E 025°21'435.8
2018-Jun-17 08:30N 37°03' E 025°19'613.0
2018-Jun-17 08:00N 37°10' E 025°18'1010.9
2018-Jun-17 07:08N 37°06' E 025°07'433.9
2018-Jun-17 07:01N 37°09' E 025°03'1734.3
2018-Jun-17 06:31N 37°19' E 024°46'4033.0
2018-Jun-17 05:18N 37°36' E 024°00'1032.9
2018-Jun-17 05:00N 37°39' E 023°49'1632.2
2018-Jun-17 04:31N 37°52' E 023°37'5 9.1
2018-Jun-17 03:58N 37°57' E 023°38'0 0.0
2018-Jun-17 03:28N 37°57' E 023°38'0 0.0
2018-Jun-17 02:58N 37°57' E 023°38'0 0.0
2018-Jun-17 02:28N 37°57' E 023°38'0 0.0
2018-Jun-17 01:58N 37°57' E 023°38'0 0.0
2018-Jun-17 01:28N 37°57' E 023°38'0 0.0
2018-Jun-17 00:58N 37°57' E 023°38'0 0.0
2018-Jun-17 00:28N 37°57' E 023°38'0 0.0
2018-Jun-16 23:58N 37°57' E 023°38'0 0.0
2018-Jun-16 23:28N 37°57' E 023°38'0 0.0
2018-Jun-16 22:58N 37°57' E 023°38'0 0.0
2018-Jun-16 22:28N 37°57' E 023°38'0 0.0
2018-Jun-16 21:58N 37°57' E 023°38'0 0.0
2018-Jun-16 21:28N 37°57' E 023°38'0 0.0
2018-Jun-16 20:58N 37°57' E 023°38'0 0.0
2018-Jun-16 20:28N 37°57' E 023°38'0 0.0
2018-Jun-16 19:58N 37°57' E 023°38'0 0.0
2018-Jun-16 19:28N 37°57' E 023°38'0 0.0
2018-Jun-16 18:58N 37°57' E 023°38'0 0.0
2018-Jun-16 18:28N 37°57' E 023°38'0 0.0
2018-Jun-16 18:00N 37°57' E 023°38'3 6.9
2018-Jun-16 17:31N 37°53' E 023°39'1733.1
2018-Jun-16 17:01N 37°40' E 023°50'5135.2
2018-Jun-16 15:33N 37°15' E 024°47'135.0
2018-Jun-16 15:30N 37°14' E 024°49'1717.3
2018-Jun-16 14:30N 37°06' E 025°08'1223.1
2018-Jun-16 14:01N 37°06' E 025°22'612.7
2018-Jun-16 13:31N 37°00' E 025°20'2 0.3
2018-Jun-16 08:47N 36°59' E 025°21'726.8
2018-Jun-16 08:31N 37°06' E 025°22'5 9.1
2018-Jun-16 08:00N 37°10' E 025°18'910.4
2018-Jun-16 07:08N 37°06' E 025°07'431.8
2018-Jun-16 07:01N 37°09' E 025°04'1733.9
2018-Jun-16 06:31N 37°19' E 024°47'4533.7
2018-Jun-16 05:10N 37°38' E 023°55'634.3
2018-Jun-16 05:00N 37°39' E 023°48'1631.5
2018-Jun-16 04:31N 37°52' E 023°37'5 9.0
2018-Jun-16 04:00N 37°57' E 023°38'0 0.0
2018-Jun-16 03:30N 37°57' E 023°38'0 0.0
2018-Jun-16 03:00N 37°57' E 023°38'0 0.0
2018-Jun-16 02:30N 37°57' E 023°38'0 0.0
2018-Jun-16 02:00N 37°57' E 023°38'0 0.0
2018-Jun-16 01:30N 37°57' E 023°38'0 0.0
2018-Jun-16 01:00N 37°57' E 023°38'0 0.0
2018-Jun-16 00:30N 37°57' E 023°38'0 0.0
2018-Jun-16 00:00N 37°57' E 023°38'0 0.0
2018-Jun-15 23:30N 37°57' E 023°38'0 0.0
2018-Jun-15 23:00N 37°57' E 023°38'0 0.0
2018-Jun-15 22:30N 37°57' E 023°38'0 0.0
2018-Jun-15 22:00N 37°57' E 023°38'0 0.0
2018-Jun-15 21:30N 37°57' E 023°38'0 0.0
2018-Jun-15 21:00N 37°57' E 023°38'0 0.0
2018-Jun-15 20:30N 37°57' E 023°38'0 0.0
2018-Jun-15 20:00N 37°57' E 023°38'0 0.0
2018-Jun-15 19:30N 37°57' E 023°38'0 0.0
2018-Jun-15 19:00N 37°57' E 023°38'0 0.0
2018-Jun-15 18:30N 37°57' E 023°38'0 0.4
2018-Jun-15 18:00N 37°57' E 023°38'919.0
2018-Jun-15 17:31N 37°47' E 023°41'2129.6
2018-Jun-15 16:48N 37°37' E 024°05'4431.7
2018-Jun-15 15:25N 37°12' E 024°50'1435.1
2018-Jun-15 15:01N 37°05' E 025°05'2 4.2
2018-Jun-15 14:27N 37°06' E 025°08'1125.9
2018-Jun-15 14:01N 37°06' E 025°22'612.8
2018-Jun-15 13:31N 37°00' E 025°20'1 0.2
2018-Jun-15 08:49N 36°59' E 025°21'722.9
2018-Jun-15 08:31N 37°06' E 025°22'510.4
2018-Jun-15 08:01N 37°10' E 025°18'912.0
2018-Jun-15 07:15N 37°05' E 025°08'727.2
2018-Jun-15 07:01N 37°10' E 025°03'6033.2
2018-Jun-15 05:13N 37°37' E 023°56'733.5
2018-Jun-15 05:00N 37°39' E 023°47'1530.8
2018-Jun-15 04:31N 37°52' E 023°37'5 8.6
2018-Jun-15 03:58N 37°57' E 023°38'0 0.0
2018-Jun-15 03:28N 37°57' E 023°38'0 0.0
2018-Jun-15 02:58N 37°57' E 023°38'0 0.0
2018-Jun-15 02:28N 37°57' E 023°38'0 0.0
2018-Jun-15 01:58N 37°57' E 023°38'0 0.0
2018-Jun-15 01:28N 37°57' E 023°38'0 0.0
2018-Jun-15 00:58N 37°57' E 023°38'0 0.0
2018-Jun-15 00:28N 37°57' E 023°38'0 0.0
2018-Jun-14 23:58N 37°57' E 023°38'0 0.0
2018-Jun-14 23:28N 37°57' E 023°38'0 0.0
2018-Jun-14 22:58N 37°57' E 023°38'0 0.0
2018-Jun-14 22:28N 37°57' E 023°38'0 0.0
2018-Jun-14 21:58N 37°57' E 023°38'0 0.0
2018-Jun-14 21:28N 37°57' E 023°38'0 0.0
2018-Jun-14 20:58N 37°57' E 023°38'0 0.0
2018-Jun-14 20:28N 37°57' E 023°38'0 0.0
2018-Jun-14 19:58N 37°57' E 023°38'0 0.0
2018-Jun-14 19:28N 37°57' E 023°38'0 0.0
2018-Jun-14 18:58N 37°57' E 023°38'0 0.0
2018-Jun-14 18:28N 37°57' E 023°38'0 0.0
2018-Jun-14 18:00N 37°57' E 023°38'3 6.4
2018-Jun-14 17:31N 37°54' E 023°38'1632.5
2018-Jun-14 17:01N 37°40' E 023°50'5034.3
2018-Jun-14 15:33N 37°18' E 024°46'235.7
2018-Jun-14 15:31N 37°17' E 024°48'1835.8
2018-Jun-14 15:00N 37°07' E 025°06'2 3.2
2018-Jun-14 14:30N 37°07' E 025°08'1122.9
2018-Jun-14 14:00N 37°06' E 025°22'611.5
2018-Jun-14 13:31N 37°01' E 025°20'2 0.4
2018-Jun-14 08:41N 36°59' E 025°21'633.0
2018-Jun-14 08:31N 37°05' E 025°19'510.1
2018-Jun-14 08:01N 37°10' E 025°18'910.8
2018-Jun-14 07:10N 37°07' E 025°07'533.2
2018-Jun-14 07:01N 37°10' E 025°02'1733.3
2018-Jun-14 06:31N 37°20' E 024°45'5533.1
2018-Jun-14 04:51N 37°41' E 023°42'1233.8
2018-Jun-14 04:31N 37°52' E 023°37'5 0.3
2018-Jun-13 14:39N 37°57' E 023°38'0 0.0
2018-Jun-13 14:30N 37°57' E 023°38'0 0.0
2018-Jun-13 14:00N 37°57' E 023°38'0 0.0
2018-Jun-13 13:30N 37°57' E 023°38'0 0.0
2018-Jun-13 13:00N 37°57' E 023°38'0 0.0
2018-Jun-13 12:30N 37°57' E 023°38'0 0.0
2018-Jun-13 12:00N 37°57' E 023°38'0 0.0
2018-Jun-13 11:30N 37°57' E 023°38'0 0.0
2018-Jun-13 11:00N 37°57' E 023°38'0 0.0
2018-Jun-13 10:30N 37°57' E 023°38'0 0.0
2018-Jun-13 10:00N 37°57' E 023°38'0 0.0
2018-Jun-13 09:30N 37°57' E 023°38'0 0.0
2018-Jun-13 09:00N 37°57' E 023°38'0 0.0
2018-Jun-13 08:30N 37°57' E 023°38'0 0.0
2018-Jun-13 08:00N 37°57' E 023°38'0 0.0
2018-Jun-13 07:30N 37°57' E 023°38'0 0.0
2018-Jun-13 07:00N 37°57' E 023°38'0 0.0
2018-Jun-13 06:30N 37°57' E 023°38'0 0.0
2018-Jun-13 06:00N 37°57' E 023°38'0 0.0
2018-Jun-13 05:30N 37°57' E 023°38'0 0.0
2018-Jun-13 05:00N 37°57' E 023°38'0 0.0
2018-Jun-13 04:30N 37°57' E 023°38'0 0.0
2018-Jun-13 04:00N 37°57' E 023°38'0 0.0
2018-Jun-13 03:30N 37°57' E 023°38'0 0.0
2018-Jun-13 03:00N 37°57' E 023°38'0 0.0
2018-Jun-13 02:30N 37°57' E 023°38'0 0.0
2018-Jun-13 02:00N 37°57' E 023°38'0 0.0
2018-Jun-13 01:30N 37°57' E 023°38'0 0.0
2018-Jun-13 01:00N 37°57' E 023°38'0 0.0
2018-Jun-13 00:30N 37°57' E 023°38'0 0.0
2018-Jun-13 00:00N 37°57' E 023°38'0 0.0
2018-Jun-12 23:30N 37°57' E 023°38'0 0.0
2018-Jun-12 23:00N 37°57' E 023°38'0 0.0
2018-Jun-12 22:30N 37°57' E 023°38'0 0.0
2018-Jun-12 22:00N 37°57' E 023°38'0 0.0
2018-Jun-12 21:30N 37°57' E 023°38'0 0.0
2018-Jun-12 21:00N 37°57' E 023°38'0 0.0
2018-Jun-12 20:30N 37°57' E 023°38'0 0.0
2018-Jun-12 20:00N 37°57' E 023°38'0 0.0
2018-Jun-12 19:30N 37°57' E 023°38'0 0.0
2018-Jun-12 19:00N 37°57' E 023°38'0 0.0
2018-Jun-12 18:30N 37°57' E 023°38'0 0.0
2018-Jun-12 18:00N 37°57' E 023°38'0 0.0
2018-Jun-12 17:30N 37°57' E 023°38'0 0.0
2018-Jun-12 17:00N 37°57' E 023°38'0 0.0
2018-Jun-12 16:30N 37°57' E 023°38'0 0.0
2018-Jun-12 16:00N 37°57' E 023°38'0 0.0
2018-Jun-12 15:27N 37°57' E 023°38'0 0.0
2018-Jun-12 15:00N 37°57' E 023°38'0 0.0
2018-Jun-12 14:27N 37°57' E 023°38'0 0.0
2018-Jun-12 14:00N 37°57' E 023°38'0 0.0
2018-Jun-12 13:30N 37°57' E 023°38'0 0.0
2018-Jun-12 13:00N 37°57' E 023°38'0 0.0
2018-Jun-12 12:30N 37°57' E 023°38'0 0.0
2018-Jun-12 12:00N 37°57' E 023°38'0 0.0
2018-Jun-12 11:30N 37°57' E 023°38'0 0.0
2018-Jun-12 11:00N 37°57' E 023°38'0 0.0
2018-Jun-12 10:30N 37°57' E 023°38'0 0.0
2018-Jun-12 10:00N 37°57' E 023°38'0 0.0
2018-Jun-12 09:30N 37°57' E 023°38'0 0.0
2018-Jun-12 09:00N 37°57' E 023°38'0 0.0
2018-Jun-12 08:30N 37°57' E 023°38'0 0.0
2018-Jun-12 07:59N 37°57' E 023°38'0 0.0
2018-Jun-12 07:30N 37°57' E 023°38'0 0.0
2018-Jun-12 07:00N 37°57' E 023°38'0 0.0
2018-Jun-12 06:30N 37°57' E 023°38'0 0.0
2018-Jun-12 06:00N 37°57' E 023°38'0 0.0
2018-Jun-12 05:30N 37°57' E 023°38'0 0.0
2018-Jun-12 05:00N 37°57' E 023°38'0 0.0
2018-Jun-12 04:30N 37°57' E 023°38'0 0.0
2018-Jun-12 04:00N 37°57' E 023°38'0 0.0
2018-Jun-12 03:30N 37°57' E 023°38'0 0.0
2018-Jun-12 03:00N 37°57' E 023°38'0 0.0
2018-Jun-12 02:30N 37°57' E 023°38'0 0.0
2018-Jun-12 02:00N 37°57' E 023°38'0 0.0
2018-Jun-12 01:30N 37°57' E 023°38'0 0.0
2018-Jun-12 01:00N 37°57' E 023°38'0 0.0
2018-Jun-12 00:30N 37°57' E 023°38'0 0.0
2018-Jun-12 00:00N 37°57' E 023°38'0 0.0
2018-Jun-11 23:30N 37°57' E 023°38'0 0.0
2018-Jun-11 23:00N 37°57' E 023°38'0 0.0
2018-Jun-11 22:30N 37°57' E 023°38'0 0.0
2018-Jun-11 22:00N 37°57' E 023°38'0 0.0
2018-Jun-11 21:30N 37°57' E 023°38'0 0.0
2018-Jun-11 21:00N 37°57' E 023°38'0 0.0
2018-Jun-11 20:30N 37°57' E 023°38'0 0.0
2018-Jun-11 20:00N 37°57' E 023°38'0 0.0
2018-Jun-11 19:30N 37°57' E 023°38'0 0.0
2018-Jun-11 19:00N 37°57' E 023°38'0 0.0
2018-Jun-11 18:30N 37°57' E 023°38'0 0.0
2018-Jun-11 18:00N 37°57' E 023°38'4 8.9
2018-Jun-11 17:31N 37°52' E 023°39'1733.8
2018-Jun-11 17:00N 37°39' E 023°52'5133.6
2018-Jun-11 15:30N 37°14' E 024°48'1734.8
2018-Jun-11 15:00N 37°06' E 025°07'611.0
2018-Jun-11 14:27N 37°09' E 025°13'818.1
2018-Jun-11 14:00N 37°06' E 025°22'7 1.4
2018-Jun-11 08:49N 36°59' E 025°21'723.4
2018-Jun-11 08:31N 37°06' E 025°22'612.4
2018-Jun-11 08:01N 37°10' E 025°16'8 9.2
2018-Jun-11 07:09N 37°06' E 025°07'533.7
2018-Jun-11 07:01N 37°09' E 025°03'1733.6
2018-Jun-11 06:31N 37°20' E 024°46'4632.8
2018-Jun-11 05:06N 37°38' E 023°53'335.5
2018-Jun-11 05:00N 37°39' E 023°49'1632.4
2018-Jun-11 04:31N 37°52' E 023°37'5 9.7
2018-Jun-11 04:00N 37°57' E 023°38'0 0.0
2018-Jun-11 03:30N 37°57' E 023°38'0 0.0
2018-Jun-11 03:00N 37°57' E 023°38'0 0.0
2018-Jun-11 02:30N 37°57' E 023°38'0 0.0
2018-Jun-11 02:00N 37°57' E 023°38'0 0.0
2018-Jun-11 01:30N 37°57' E 023°38'0 0.0
2018-Jun-11 01:00N 37°57' E 023°38'0 0.0
2018-Jun-11 00:30N 37°57' E 023°38'0 0.0
2018-Jun-11 00:00N 37°57' E 023°38'0 0.0
2018-Jun-10 23:30N 37°57' E 023°38'0 0.0
2018-Jun-10 23:00N 37°57' E 023°38'0 0.0
2018-Jun-10 22:30N 37°57' E 023°38'0 0.0
2018-Jun-10 22:00N 37°57' E 023°38'0 0.0
2018-Jun-10 21:30N 37°57' E 023°38'0 0.0
2018-Jun-10 21:00N 37°57' E 023°38'0 0.0
2018-Jun-10 20:30N 37°57' E 023°38'0 0.0
2018-Jun-10 20:00N 37°57' E 023°38'0 0.0
2018-Jun-10 19:30N 37°57' E 023°38'0 0.0
2018-Jun-10 19:00N 37°57' E 023°38'0 0.0
2018-Jun-10 18:30N 37°57' E 023°38'0 0.0
2018-Jun-10 18:01N 37°57' E 023°38'3 5.4
2018-Jun-10 17:31N 37°54' E 023°38'1530.3
2018-Jun-10 17:01N 37°41' E 023°47'5235.7
2018-Jun-10 15:33N 37°18' E 024°46'236.7
2018-Jun-10 15:31N 37°17' E 024°48'  

Dump ship's entire track history